sensor_id;sensor_type;location;lat;lon;timestamp;temperature;humidity
53876;DHT22;39789;53.216;5.624;2023-02-11T00:01:08;6.20;99.90
53876;DHT22;39789;53.216;5.624;2023-02-11T00:03:35;6.20;99.90
53876;DHT22;39789;53.216;5.624;2023-02-11T00:06:04;6.20;99.90
53876;DHT22;39789;53.216;5.624;2023-02-11T00:08:30;6.30;99.90
53876;DHT22;39789;53.216;5.624;2023-02-11T00:10:57;6.30;99.90
53876;DHT22;39789;53.216;5.624;2023-02-11T00:13:23;6.30;99.90
53876;DHT22;39789;53.216;5.624;2023-02-11T00:15:49;6.40;99.90
53876;DHT22;39789;53.216;5.624;2023-02-11T00:18:15;6.40;99.90
53876;DHT22;39789;53.216;5.624;2023-02-11T00:20:41;6.40;99.90
53876;DHT22;39789;53.216;5.624;2023-02-11T00:23:07;6.40;99.90
53876;DHT22;39789;53.216;5.624;2023-02-11T00:25:37;6.50;99.90
53876;DHT22;39789;53.216;5.624;2023-02-11T00:28:07;6.40;99.90
53876;DHT22;39789;53.216;5.624;2023-02-11T00:30:32;6.50;99.90
53876;DHT22;39789;53.216;5.624;2023-02-11T00:32:58;6.80;99.90
53876;DHT22;39789;53.216;5.624;2023-02-11T00:35:24;6.30;99.90
53876;DHT22;39789;53.216;5.624;2023-02-11T00:37:52;6.90;99.90
53876;DHT22;39789;53.216;5.624;2023-02-11T00:40:19;8.00;99.90
53876;DHT22;39789;53.216;5.624;2023-02-11T00:42:45;6.60;99.90
53876;DHT22;39789;53.216;5.624;2023-02-11T00:45:11;6.60;99.90
53876;DHT22;39789;53.216;5.624;2023-02-11T00:47:37;6.60;99.90
53876;DHT22;39789;53.216;5.624;2023-02-11T00:50:04;6.30;99.90
53876;DHT22;39789;53.216;5.624;2023-02-11T00:52:30;6.60;99.90
53876;DHT22;39789;53.216;5.624;2023-02-11T00:54:56;6.70;99.90
53876;DHT22;39789;53.216;5.624;2023-02-11T00:57:22;6.60;99.90
53876;DHT22;39789;53.216;5.624;2023-02-11T00:59:49;6.70;99.90
53876;DHT22;39789;53.216;5.624;2023-02-11T01:02:15;7.60;99.90
53876;DHT22;39789;53.216;5.624;2023-02-11T01:04:41;6.70;99.90
53876;DHT22;39789;53.216;5.624;2023-02-11T01:07:07;6.70;99.90
53876;DHT22;39789;53.216;5.624;2023-02-11T01:09:33;6.70;99.90
53876;DHT22;39789;53.216;5.624;2023-02-11T01:11:59;6.70;99.90
53876;DHT22;39789;53.216;5.624;2023-02-11T01:14:25;6.80;99.90
53876;DHT22;39789;53.216;5.624;2023-02-11T01:16:52;6.80;99.90
53876;DHT22;39789;53.216;5.624;2023-02-11T01:19:19;6.60;99.90
53876;DHT22;39789;53.216;5.624;2023-02-11T01:21:45;6.60;99.90
53876;DHT22;39789;53.216;5.624;2023-02-11T01:24:10;7.80;99.90
53876;DHT22;39789;53.216;5.624;2023-02-11T01:26:36;6.60;99.90
53876;DHT22;39789;53.216;5.624;2023-02-11T01:29:02;6.80;99.90
53876;DHT22;39789;53.216;5.624;2023-02-11T01:31:29;7.90;99.90
53876;DHT22;39789;53.216;5.624;2023-02-11T01:33:55;7.00;99.90
53876;DHT22;39789;53.216;5.624;2023-02-11T01:36:21;6.70;99.90
53876;DHT22;39789;53.216;5.624;2023-02-11T01:38:46;6.50;99.90
53876;DHT22;39789;53.216;5.624;2023-02-11T01:41:15;7.00;99.90
53876;DHT22;39789;53.216;5.624;2023-02-11T01:43:46;7.00;99.90
53876;DHT22;39789;53.216;5.624;2023-02-11T01:49:11;7.00;99.90
53876;DHT22;39789;53.216;5.624;2023-02-11T01:51:43;6.90;99.90
53876;DHT22;39789;53.216;5.624;2023-02-11T01:54:15;6.90;99.90
53876;DHT22;39789;53.216;5.624;2023-02-11T01:57:01;6.90;99.90
53876;DHT22;39789;53.216;5.624;2023-02-11T02:05:39;6.90;99.90
53876;DHT22;39789;53.216;5.624;2023-02-11T02:08:13;6.90;99.90
53876;DHT22;39789;53.216;5.624;2023-02-11T02:10:46;7.00;99.90
53876;DHT22;39789;53.216;5.624;2023-02-11T02:13:13;6.90;99.90
53876;DHT22;39789;53.216;5.624;2023-02-11T02:15:43;6.90;99.90
53876;DHT22;39789;53.216;5.624;2023-02-11T02:21:21;7.00;99.90
53876;DHT22;39789;53.216;5.624;2023-02-11T02:37:55;7.10;99.90
53876;DHT22;39789;53.216;5.624;2023-02-11T02:40:22;7.10;99.90
53876;DHT22;39789;53.216;5.624;2023-02-11T02:42:53;7.10;99.90
53876;DHT22;39789;53.216;5.624;2023-02-11T02:45:19;7.20;99.90
53876;DHT22;39789;53.216;5.624;2023-02-11T02:47:45;7.10;99.90
53876;DHT22;39789;53.216;5.624;2023-02-11T02:50:13;7.10;99.90
53876;DHT22;39789;53.216;5.624;2023-02-11T02:53:00;7.20;99.90
53876;DHT22;39789;53.216;5.624;2023-02-11T02:55:43;7.10;99.90
53876;DHT22;39789;53.216;5.624;2023-02-11T02:58:31;7.20;99.90
53876;DHT22;39789;53.216;5.624;2023-02-11T03:06:31;7.20;99.90
53876;DHT22;39789;53.216;5.624;2023-02-11T03:09:11;7.20;99.90
53876;DHT22;39789;53.216;5.624;2023-02-11T03:11:37;7.20;99.90
53876;DHT22;39789;53.216;5.624;2023-02-11T03:14:08;7.20;99.90
53876;DHT22;39789;53.216;5.624;2023-02-11T03:16:36;7.20;99.90
53876;DHT22;39789;53.216;5.624;2023-02-11T03:19:11;7.20;99.90
53876;DHT22;39789;53.216;5.624;2023-02-11T03:21:40;7.20;99.90
53876;DHT22;39789;53.216;5.624;2023-02-11T03:24:20;7.20;99.90
53876;DHT22;39789;53.216;5.624;2023-02-11T03:26:51;7.10;99.90
53876;DHT22;39789;53.216;5.624;2023-02-11T03:29:35;7.20;99.90
53876;DHT22;39789;53.216;5.624;2023-02-11T03:34:54;7.30;99.90
53876;DHT22;39789;53.216;5.624;2023-02-11T03:37:39;7.30;99.90
53876;DHT22;39789;53.216;5.624;2023-02-11T03:40:20;7.30;99.90
53876;DHT22;39789;53.216;5.624;2023-02-11T03:42:58;7.30;99.90
53876;DHT22;39789;53.216;5.624;2023-02-11T03:45:26;7.30;99.90
53876;DHT22;39789;53.216;5.624;2023-02-11T03:50:39;7.30;99.90
53876;DHT22;39789;53.216;5.624;2023-02-11T03:53:07;7.30;99.90
53876;DHT22;39789;53.216;5.624;2023-02-11T03:55:36;7.30;99.90
53876;DHT22;39789;53.216;5.624;2023-02-11T03:58:03;7.40;99.90
53876;DHT22;39789;53.216;5.624;2023-02-11T04:00:38;7.30;99.90
53876;DHT22;39789;53.216;5.624;2023-02-11T04:03:04;7.40;99.90
53876;DHT22;39789;53.216;5.624;2023-02-11T04:05:31;7.40;99.90
53876;DHT22;39789;53.216;5.624;2023-02-11T04:07:57;8.30;99.90
53876;DHT22;39789;53.216;5.624;2023-02-11T04:10:23;7.40;99.90
53876;DHT22;39789;53.216;5.624;2023-02-11T04:12:48;7.40;99.90
53876;DHT22;39789;53.216;5.624;2023-02-11T04:15:14;7.40;99.90
53876;DHT22;39789;53.216;5.624;2023-02-11T04:17:40;7.40;99.90
53876;DHT22;39789;53.216;5.624;2023-02-11T04:20:06;7.40;99.90
53876;DHT22;39789;53.216;5.624;2023-02-11T04:22:32;7.40;99.90
53876;DHT22;39789;53.216;5.624;2023-02-11T04:24:57;7.40;99.90
53876;DHT22;39789;53.216;5.624;2023-02-11T04:27:23;7.40;99.90
53876;DHT22;39789;53.216;5.624;2023-02-11T04:29:49;7.50;99.90
53876;DHT22;39789;53.216;5.624;2023-02-11T04:32:15;7.50;99.90
53876;DHT22;39789;53.216;5.624;2023-02-11T04:34:41;7.50;99.90
53876;DHT22;39789;53.216;5.624;2023-02-11T04:37:07;7.40;99.90
53876;DHT22;39789;53.216;5.624;2023-02-11T04:39:33;7.50;99.90
53876;DHT22;39789;53.216;5.624;2023-02-11T04:41:59;7.50;99.90
53876;DHT22;39789;53.216;5.624;2023-02-11T04:44:25;7.80;99.90
53876;DHT22;39789;53.216;5.624;2023-02-11T04:46:51;7.50;99.90
53876;DHT22;39789;53.216;5.624;2023-02-11T04:49:17;7.50;99.90
53876;DHT22;39789;53.216;5.624;2023-02-11T04:51:43;7.60;99.90
53876;DHT22;39789;53.216;5.624;2023-02-11T04:54:11;7.40;99.90
53876;DHT22;39789;53.216;5.624;2023-02-11T04:56:37;7.30;99.90
53876;DHT22;39789;53.216;5.624;2023-02-11T04:59:03;7.50;99.90
53876;DHT22;39789;53.216;5.624;2023-02-11T05:01:29;7.50;99.90
53876;DHT22;39789;53.216;5.624;2023-02-11T05:03:55;7.60;99.90
53876;DHT22;39789;53.216;5.624;2023-02-11T05:06:20;7.40;99.90
53876;DHT22;39789;53.216;5.624;2023-02-11T05:08:46;7.30;99.90
53876;DHT22;39789;53.216;5.624;2023-02-11T05:11:22;8.00;99.90
53876;DHT22;39789;53.216;5.624;2023-02-11T05:13:49;8.70;99.90
53876;DHT22;39789;53.216;5.624;2023-02-11T05:16:16;8.00;99.90
53876;DHT22;39789;53.216;5.624;2023-02-11T05:18:43;7.10;99.90
53876;DHT22;39789;53.216;5.624;2023-02-11T05:21:12;7.00;99.90
53876;DHT22;39789;53.216;5.624;2023-02-11T05:23:39;7.40;99.90
53876;DHT22;39789;53.216;5.624;2023-02-11T05:26:04;7.60;99.90
53876;DHT22;39789;53.216;5.624;2023-02-11T05:28:30;8.10;99.90
53876;DHT22;39789;53.216;5.624;2023-02-11T05:30:56;7.50;99.90
53876;DHT22;39789;53.216;5.624;2023-02-11T05:33:22;7.50;99.90
53876;DHT22;39789;53.216;5.624;2023-02-11T05:35:47;8.90;99.90
53876;DHT22;39789;53.216;5.624;2023-02-11T05:38:13;7.40;99.90
53876;DHT22;39789;53.216;5.624;2023-02-11T05:40:39;7.30;99.90
53876;DHT22;39789;53.216;5.624;2023-02-11T05:43:05;7.30;99.90
53876;DHT22;39789;53.216;5.624;2023-02-11T05:45:31;7.00;99.90
53876;DHT22;39789;53.216;5.624;2023-02-11T05:47:57;7.20;99.90
53876;DHT22;39789;53.216;5.624;2023-02-11T05:50:23;7.10;99.90
53876;DHT22;39789;53.216;5.624;2023-02-11T05:52:48;7.10;99.90
53876;DHT22;39789;53.216;5.624;2023-02-11T05:55:14;7.00;99.90
53876;DHT22;39789;53.216;5.624;2023-02-11T05:57:40;8.50;99.90
53876;DHT22;39789;53.216;5.624;2023-02-11T06:00:15;7.00;99.90
53876;DHT22;39789;53.216;5.624;2023-02-11T06:02:41;7.00;99.90
53876;DHT22;39789;53.216;5.624;2023-02-11T06:05:10;7.00;99.90
53876;DHT22;39789;53.216;5.624;2023-02-11T06:07:36;7.00;99.90
53876;DHT22;39789;53.216;5.624;2023-02-11T06:10:02;6.90;99.90
53876;DHT22;39789;53.216;5.624;2023-02-11T06:12:27;7.00;99.90
53876;DHT22;39789;53.216;5.624;2023-02-11T06:14:53;6.90;99.90
53876;DHT22;39789;53.216;5.624;2023-02-11T06:17:19;6.90;99.90
53876;DHT22;39789;53.216;5.624;2023-02-11T06:19:44;6.90;99.90
53876;DHT22;39789;53.216;5.624;2023-02-11T06:22:10;6.90;99.90
53876;DHT22;39789;53.216;5.624;2023-02-11T06:24:36;7.00;99.90
53876;DHT22;39789;53.216;5.624;2023-02-11T06:27:03;7.00;99.90
53876;DHT22;39789;53.216;5.624;2023-02-11T06:29:29;7.00;99.90
53876;DHT22;39789;53.216;5.624;2023-02-11T06:31:55;7.00;99.90
53876;DHT22;39789;53.216;5.624;2023-02-11T06:34:21;7.00;99.90
53876;DHT22;39789;53.216;5.624;2023-02-11T06:36:46;7.10;99.90
53876;DHT22;39789;53.216;5.624;2023-02-11T06:39:12;7.10;99.90
53876;DHT22;39789;53.216;5.624;2023-02-11T06:41:38;7.10;99.90
53876;DHT22;39789;53.216;5.624;2023-02-11T06:44:04;7.10;99.90
53876;DHT22;39789;53.216;5.624;2023-02-11T06:46:29;7.10;99.90
53876;DHT22;39789;53.216;5.624;2023-02-11T06:48:55;7.10;99.90
53876;DHT22;39789;53.216;5.624;2023-02-11T06:51:20;7.10;99.90
53876;DHT22;39789;53.216;5.624;2023-02-11T06:53:48;7.00;99.90
53876;DHT22;39789;53.216;5.624;2023-02-11T06:56:17;7.10;99.90
53876;DHT22;39789;53.216;5.624;2023-02-11T06:58:43;7.00;99.90
53876;DHT22;39789;53.216;5.624;2023-02-11T07:01:11;7.00;99.90
53876;DHT22;39789;53.216;5.624;2023-02-11T07:03:38;6.90;99.90
53876;DHT22;39789;53.216;5.624;2023-02-11T07:06:06;6.90;99.90
53876;DHT22;39789;53.216;5.624;2023-02-11T07:08:33;6.90;99.90
53876;DHT22;39789;53.216;5.624;2023-02-11T07:11:00;6.90;99.90
53876;DHT22;39789;53.216;5.624;2023-02-11T07:13:26;6.90;99.90
53876;DHT22;39789;53.216;5.624;2023-02-11T07:15:52;6.90;99.90
53876;DHT22;39789;53.216;5.624;2023-02-11T07:18:18;6.80;99.90
53876;DHT22;39789;53.216;5.624;2023-02-11T07:20:43;6.90;99.90
53876;DHT22;39789;53.216;5.624;2023-02-11T07:23:09;6.80;99.90
53876;DHT22;39789;53.216;5.624;2023-02-11T07:25:35;6.80;99.90
53876;DHT22;39789;53.216;5.624;2023-02-11T07:28:00;6.80;99.90
53876;DHT22;39789;53.216;5.624;2023-02-11T07:30:26;6.90;99.90
53876;DHT22;39789;53.216;5.624;2023-02-11T07:32:52;6.80;99.90
53876;DHT22;39789;53.216;5.624;2023-02-11T07:35:20;6.80;99.90
53876;DHT22;39789;53.216;5.624;2023-02-11T07:37:46;6.90;99.90
53876;DHT22;39789;53.216;5.624;2023-02-11T07:40:12;6.90;99.90
53876;DHT22;39789;53.216;5.624;2023-02-11T07:42:37;7.20;99.90
53876;DHT22;39789;53.216;5.624;2023-02-11T07:45:05;8.00;99.90
53876;DHT22;39789;53.216;5.624;2023-02-11T07:47:34;7.00;99.90
53876;DHT22;39789;53.216;5.624;2023-02-11T07:50:00;7.10;99.90
53876;DHT22;39789;53.216;5.624;2023-02-11T07:52:29;7.10;99.90
53876;DHT22;39789;53.216;5.624;2023-02-11T07:54:55;7.10;99.90
53876;DHT22;39789;53.216;5.624;2023-02-11T07:57:20;7.20;99.90
53876;DHT22;39789;53.216;5.624;2023-02-11T07:59:46;7.20;99.90
53876;DHT22;39789;53.216;5.624;2023-02-11T08:02:11;7.30;99.90
53876;DHT22;39789;53.216;5.624;2023-02-11T08:04:37;8.60;99.90
53876;DHT22;39789;53.216;5.624;2023-02-11T08:07:03;7.30;99.90
53876;DHT22;39789;53.216;5.624;2023-02-11T08:09:29;7.30;99.90
53876;DHT22;39789;53.216;5.624;2023-02-11T08:11:54;7.30;99.90
53876;DHT22;39789;53.216;5.624;2023-02-11T08:14:20;7.40;99.90
53876;DHT22;39789;53.216;5.624;2023-02-11T08:16:46;7.40;99.90
53876;DHT22;39789;53.216;5.624;2023-02-11T08:19:15;7.50;99.90
53876;DHT22;39789;53.216;5.624;2023-02-11T08:21:42;7.40;99.90
53876;DHT22;39789;53.216;5.624;2023-02-11T08:24:08;7.50;99.90
53876;DHT22;39789;53.216;5.624;2023-02-11T08:26:35;7.50;99.90
53876;DHT22;39789;53.216;5.624;2023-02-11T08:29:04;7.60;99.90
53876;DHT22;39789;53.216;5.624;2023-02-11T08:31:34;7.70;99.90
53876;DHT22;39789;53.216;5.624;2023-02-11T08:34:01;7.80;99.90
53876;DHT22;39789;53.216;5.624;2023-02-11T08:36:29;7.80;99.90
53876;DHT22;39789;53.216;5.624;2023-02-11T08:38:57;7.90;99.90
53876;DHT22;39789;53.216;5.624;2023-02-11T08:41:24;7.90;99.90
53876;DHT22;39789;53.216;5.624;2023-02-11T08:43:50;7.90;99.90
53876;DHT22;39789;53.216;5.624;2023-02-11T08:46:18;7.90;99.90
53876;DHT22;39789;53.216;5.624;2023-02-11T08:48:45;7.90;99.90
53876;DHT22;39789;53.216;5.624;2023-02-11T08:51:22;7.90;99.90
53876;DHT22;39789;53.216;5.624;2023-02-11T08:53:50;8.00;99.90
53876;DHT22;39789;53.216;5.624;2023-02-11T08:56:17;8.00;99.90
53876;DHT22;39789;53.216;5.624;2023-02-11T08:58:43;8.00;99.90
53876;DHT22;39789;53.216;5.624;2023-02-11T09:01:13;8.10;99.90
53876;DHT22;39789;53.216;5.624;2023-02-11T09:03:39;8.20;99.90
53876;DHT22;39789;53.216;5.624;2023-02-11T09:06:06;8.30;99.90
53876;DHT22;39789;53.216;5.624;2023-02-11T09:08:36;8.30;99.90
53876;DHT22;39789;53.216;5.624;2023-02-11T09:11:03;8.40;99.90
53876;DHT22;39789;53.216;5.624;2023-02-11T09:13:30;8.40;99.90
53876;DHT22;39789;53.216;5.624;2023-02-11T09:15:56;8.50;99.90
53876;DHT22;39789;53.216;5.624;2023-02-11T09:18:22;8.50;99.90
53876;DHT22;39789;53.216;5.624;2023-02-11T09:20:48;8.50;99.90
53876;DHT22;39789;53.216;5.624;2023-02-11T09:23:13;8.50;99.90
53876;DHT22;39789;53.216;5.624;2023-02-11T09:25:39;8.50;99.90
53876;DHT22;39789;53.216;5.624;2023-02-11T09:28:08;9.30;99.90
53876;DHT22;39789;53.216;5.624;2023-02-11T09:30:36;8.50;99.90
53876;DHT22;39789;53.216;5.624;2023-02-11T09:33:02;8.50;99.90
53876;DHT22;39789;53.216;5.624;2023-02-11T09:35:28;8.60;99.90
53876;DHT22;39789;53.216;5.624;2023-02-11T09:37:54;8.60;99.90
53876;DHT22;39789;53.216;5.624;2023-02-11T09:40:19;8.60;99.90
53876;DHT22;39789;53.216;5.624;2023-02-11T09:45:27;8.70;99.90
53876;DHT22;39789;53.216;5.624;2023-02-11T09:48:19;8.70;99.90
53876;DHT22;39789;53.216;5.624;2023-02-11T09:50:49;8.70;99.90
53876;DHT22;39789;53.216;5.624;2023-02-11T09:53:25;8.80;99.90
53876;DHT22;39789;53.216;5.624;2023-02-11T09:55:56;8.80;99.90
53876;DHT22;39789;53.216;5.624;2023-02-11T09:58:30;8.80;99.90
53876;DHT22;39789;53.216;5.624;2023-02-11T10:06:49;8.90;99.90
53876;DHT22;39789;53.216;5.624;2023-02-11T10:12:10;9.00;99.90
53876;DHT22;39789;53.216;5.624;2023-02-11T10:18:14;9.10;99.90
53876;DHT22;39789;53.216;5.624;2023-02-11T10:23:35;9.10;99.90
53876;DHT22;39789;53.216;5.624;2023-02-11T10:26:07;10.30;99.90
53876;DHT22;39789;53.216;5.624;2023-02-11T10:28:35;9.10;99.90
53876;DHT22;39789;53.216;5.624;2023-02-11T10:31:06;9.10;99.90
53876;DHT22;39789;53.216;5.624;2023-02-11T10:36:17;9.00;99.90
53876;DHT22;39789;53.216;5.624;2023-02-11T10:38:43;8.90;99.90
53876;DHT22;39789;53.216;5.624;2023-02-11T10:41:12;8.80;99.90
53876;DHT22;39789;53.216;5.624;2023-02-11T10:43:41;8.90;99.90
53876;DHT22;39789;53.216;5.624;2023-02-11T10:46:24;8.90;99.90
53876;DHT22;39789;53.216;5.624;2023-02-11T10:48:53;8.90;99.90
53876;DHT22;39789;53.216;5.624;2023-02-11T10:51:21;8.90;99.90
53876;DHT22;39789;53.216;5.624;2023-02-11T10:53:49;9.10;99.90
53876;DHT22;39789;53.216;5.624;2023-02-11T10:56:34;9.00;99.90
53876;DHT22;39789;53.216;5.624;2023-02-11T10:59:04;9.80;99.90
53876;DHT22;39789;53.216;5.624;2023-02-11T11:01:45;9.10;99.90
53876;DHT22;39789;53.216;5.624;2023-02-11T11:06:49;9.10;99.90
53876;DHT22;39789;53.216;5.624;2023-02-11T11:09:48;9.10;99.90
53876;DHT22;39789;53.216;5.624;2023-02-11T11:12:27;9.10;99.90
53876;DHT22;39789;53.216;5.624;2023-02-11T11:17:35;9.20;99.90
53876;DHT22;39789;53.216;5.624;2023-02-11T11:20:21;9.20;99.90
53876;DHT22;39789;53.216;5.624;2023-02-11T11:22:49;9.20;99.90
53876;DHT22;39789;53.216;5.624;2023-02-11T11:25:25;9.30;99.90
53876;DHT22;39789;53.216;5.624;2023-02-11T11:27:53;9.30;99.90
53876;DHT22;39789;53.216;5.624;2023-02-11T11:30:20;9.30;99.90
53876;DHT22;39789;53.216;5.624;2023-02-11T11:32:47;9.70;99.90
53876;DHT22;39789;53.216;5.624;2023-02-11T11:35:26;9.30;99.90
53876;DHT22;39789;53.216;5.624;2023-02-11T11:38:01;9.30;99.90
53876;DHT22;39789;53.216;5.624;2023-02-11T11:40:29;9.30;99.90
53876;DHT22;39789;53.216;5.624;2023-02-11T11:43:24;9.30;99.90
53876;DHT22;39789;53.216;5.624;2023-02-11T11:45:58;9.80;99.90
53876;DHT22;39789;53.216;5.624;2023-02-11T11:48:29;9.40;99.90
53876;DHT22;39789;53.216;5.624;2023-02-11T11:51:01;9.40;99.90
53876;DHT22;39789;53.216;5.624;2023-02-11T11:53:41;9.40;99.90
53876;DHT22;39789;53.216;5.624;2023-02-11T11:56:17;9.40;99.90
53876;DHT22;39789;53.216;5.624;2023-02-11T11:58:44;9.40;99.90
53876;DHT22;39789;53.216;5.624;2023-02-11T12:01:33;9.50;99.90
53876;DHT22;39789;53.216;5.624;2023-02-11T12:15:14;9.60;99.90
53876;DHT22;39789;53.216;5.624;2023-02-11T12:18:02;9.60;99.90
53876;DHT22;39789;53.216;5.624;2023-02-11T12:23:11;9.40;99.90
53876;DHT22;39789;53.216;5.624;2023-02-11T12:25:49;9.60;99.90
53876;DHT22;39789;53.216;5.624;2023-02-11T12:34:04;9.70;99.90
53876;DHT22;39789;53.216;5.624;2023-02-11T12:54:29;9.70;99.90
53876;DHT22;39789;53.216;5.624;2023-02-11T12:57:14;9.60;99.90
53876;DHT22;39789;53.216;5.624;2023-02-11T13:02:51;9.60;99.90
53876;DHT22;39789;53.216;5.624;2023-02-11T13:05:31;9.70;99.90
53876;DHT22;39789;53.216;5.624;2023-02-11T13:08:05;9.80;99.90
53876;DHT22;39789;53.216;5.624;2023-02-11T13:10:36;9.80;99.90
53876;DHT22;39789;53.216;5.624;2023-02-11T13:13:12;9.90;99.90
53876;DHT22;39789;53.216;5.624;2023-02-11T13:15:52;10.00;99.90
53876;DHT22;39789;53.216;5.624;2023-02-11T13:24:18;10.00;99.90
53876;DHT22;39789;53.216;5.624;2023-02-11T13:26:55;10.00;99.90
53876;DHT22;39789;53.216;5.624;2023-02-11T13:32:08;9.90;99.90
53876;DHT22;39789;53.216;5.624;2023-02-11T13:37:35;9.80;99.90
53876;DHT22;39789;53.216;5.624;2023-02-11T13:40:21;9.80;99.90
53876;DHT22;39789;53.216;5.624;2023-02-11T13:42:53;9.70;99.90
53876;DHT22;39789;53.216;5.624;2023-02-11T13:45:43;9.60;99.90
53876;DHT22;39789;53.216;5.624;2023-02-11T13:50:49;9.50;99.90
53876;DHT22;39789;53.216;5.624;2023-02-11T13:53:17;9.50;99.90
53876;DHT22;39789;53.216;5.624;2023-02-11T13:55:49;9.50;99.90
53876;DHT22;39789;53.216;5.624;2023-02-11T14:00:55;9.50;99.90
53876;DHT22;39789;53.216;5.624;2023-02-11T14:03:31;9.50;99.90
53876;DHT22;39789;53.216;5.624;2023-02-11T14:06:22;9.60;99.90
53876;DHT22;39789;53.216;5.624;2023-02-11T14:19:36;9.60;99.90
53876;DHT22;39789;53.216;5.624;2023-02-11T14:22:04;9.60;99.90
53876;DHT22;39789;53.216;5.624;2023-02-11T14:28:13;9.50;99.90
53876;DHT22;39789;53.216;5.624;2023-02-11T14:35:54;9.50;99.90
53876;DHT22;39789;53.216;5.624;2023-02-11T14:39:00;9.50;99.90
53876;DHT22;39789;53.216;5.624;2023-02-11T14:41:37;9.40;99.90
53876;DHT22;39789;53.216;5.624;2023-02-11T14:44:05;9.40;99.90
53876;DHT22;39789;53.216;5.624;2023-02-11T14:46:35;9.20;99.90
53876;DHT22;39789;53.216;5.624;2023-02-11T14:49:02;9.20;99.90
53876;DHT22;39789;53.216;5.624;2023-02-11T14:51:30;9.20;99.90
53876;DHT22;39789;53.216;5.624;2023-02-11T14:53:59;9.10;99.90
53876;DHT22;39789;53.216;5.624;2023-02-11T14:56:28;9.10;99.90
53876;DHT22;39789;53.216;5.624;2023-02-11T14:58:59;9.10;99.90
53876;DHT22;39789;53.216;5.624;2023-02-11T15:01:30;9.10;99.90
53876;DHT22;39789;53.216;5.624;2023-02-11T15:03:57;9.10;99.90
53876;DHT22;39789;53.216;5.624;2023-02-11T15:09:04;9.10;99.90
53876;DHT22;39789;53.216;5.624;2023-02-11T15:11:33;9.10;99.90
53876;DHT22;39789;53.216;5.624;2023-02-11T15:14:11;9.00;99.90
53876;DHT22;39789;53.216;5.624;2023-02-11T15:16:42;9.00;99.90
53876;DHT22;39789;53.216;5.624;2023-02-11T15:21:49;8.90;99.90
53876;DHT22;39789;53.216;5.624;2023-02-11T15:24:30;8.90;99.90
53876;DHT22;39789;53.216;5.624;2023-02-11T15:27:02;8.80;99.90
53876;DHT22;39789;53.216;5.624;2023-02-11T15:29:35;8.80;99.90
53876;DHT22;39789;53.216;5.624;2023-02-11T15:32:14;8.70;99.90
53876;DHT22;39789;53.216;5.624;2023-02-11T15:34:41;8.70;99.90
53876;DHT22;39789;53.216;5.624;2023-02-11T15:37:08;8.70;99.90
53876;DHT22;39789;53.216;5.624;2023-02-11T15:39:40;8.60;99.90
53876;DHT22;39789;53.216;5.624;2023-02-11T15:42:25;8.60;99.90
53876;DHT22;39789;53.216;5.624;2023-02-11T15:45:25;8.50;99.90
53876;DHT22;39789;53.216;5.624;2023-02-11T15:47:59;8.40;99.90
53876;DHT22;39789;53.216;5.624;2023-02-11T15:50:29;8.30;99.90
53876;DHT22;39789;53.216;5.624;2023-02-11T15:53:03;8.30;99.90
53876;DHT22;39789;53.216;5.624;2023-02-11T15:55:30;8.20;99.90
53876;DHT22;39789;53.216;5.624;2023-02-11T15:57:59;8.10;99.90
53876;DHT22;39789;53.216;5.624;2023-02-11T16:00:34;8.10;99.90
53876;DHT22;39789;53.216;5.624;2023-02-11T16:03:01;8.00;99.90
53876;DHT22;39789;53.216;5.624;2023-02-11T16:05:36;8.00;99.90
53876;DHT22;39789;53.216;5.624;2023-02-11T16:08:23;7.90;99.90
53876;DHT22;39789;53.216;5.624;2023-02-11T16:13:25;7.80;99.90
53876;DHT22;39789;53.216;5.624;2023-02-11T16:16:03;7.70;99.90
53876;DHT22;39789;53.216;5.624;2023-02-11T16:18:32;7.70;99.90
53876;DHT22;39789;53.216;5.624;2023-02-11T16:20:59;7.60;99.90
53876;DHT22;39789;53.216;5.624;2023-02-11T16:23:31;7.50;99.90
53876;DHT22;39789;53.216;5.624;2023-02-11T16:26:01;7.40;99.90
53876;DHT22;39789;53.216;5.624;2023-02-11T16:28:30;7.40;99.90
53876;DHT22;39789;53.216;5.624;2023-02-11T16:30:56;7.30;99.90
53876;DHT22;39789;53.216;5.624;2023-02-11T16:33:22;7.30;99.90
53876;DHT22;39789;53.216;5.624;2023-02-11T16:35:48;7.30;99.90
53876;DHT22;39789;53.216;5.624;2023-02-11T16:38:15;7.20;99.90
53876;DHT22;39789;53.216;5.624;2023-02-11T16:40:41;7.20;99.90
53876;DHT22;39789;53.216;5.624;2023-02-11T16:43:09;7.10;99.90
53876;DHT22;39789;53.216;5.624;2023-02-11T16:45:38;7.10;99.90
53876;DHT22;39789;53.216;5.624;2023-02-11T16:48:08;7.10;99.90
53876;DHT22;39789;53.216;5.624;2023-02-11T16:50:34;7.00;99.90
53876;DHT22;39789;53.216;5.624;2023-02-11T16:53:00;7.00;99.90
53876;DHT22;39789;53.216;5.624;2023-02-11T16:55:31;6.90;99.90
53876;DHT22;39789;53.216;5.624;2023-02-11T16:57:56;6.90;99.90
53876;DHT22;39789;53.216;5.624;2023-02-11T17:00:22;6.90;99.90
53876;DHT22;39789;53.216;5.624;2023-02-11T17:02:48;6.80;99.90
53876;DHT22;39789;53.216;5.624;2023-02-11T17:05:21;6.80;99.90
53876;DHT22;39789;53.216;5.624;2023-02-11T17:07:48;6.70;99.90
53876;DHT22;39789;53.216;5.624;2023-02-11T17:10:17;6.70;99.90
53876;DHT22;39789;53.216;5.624;2023-02-11T17:12:42;6.70;99.90
53876;DHT22;39789;53.216;5.624;2023-02-11T17:15:08;6.70;99.90
53876;DHT22;39789;53.216;5.624;2023-02-11T17:17:34;6.70;99.90
53876;DHT22;39789;53.216;5.624;2023-02-11T17:20:00;6.70;99.90
53876;DHT22;39789;53.216;5.624;2023-02-11T17:22:25;6.60;99.90
53876;DHT22;39789;53.216;5.624;2023-02-11T17:24:51;6.60;99.90
53876;DHT22;39789;53.216;5.624;2023-02-11T17:27:17;6.60;99.90
53876;DHT22;39789;53.216;5.624;2023-02-11T17:29:42;6.50;99.90
53876;DHT22;39789;53.216;5.624;2023-02-11T17:32:08;6.50;99.90
53876;DHT22;39789;53.216;5.624;2023-02-11T17:34:33;6.40;99.90
53876;DHT22;39789;53.216;5.624;2023-02-11T17:36:59;6.40;99.90
53876;DHT22;39789;53.216;5.624;2023-02-11T17:39:26;6.40;99.90
53876;DHT22;39789;53.216;5.624;2023-02-11T17:41:51;6.40;99.90
53876;DHT22;39789;53.216;5.624;2023-02-11T17:44:17;6.40;99.90
53876;DHT22;39789;53.216;5.624;2023-02-11T17:46:43;6.40;99.90
53876;DHT22;39789;53.216;5.624;2023-02-11T17:49:10;6.30;99.90
53876;DHT22;39789;53.216;5.624;2023-02-11T17:51:37;6.40;99.90
53876;DHT22;39789;53.216;5.624;2023-02-11T17:54:10;6.40;99.90
53876;DHT22;39789;53.216;5.624;2023-02-11T17:56:36;6.30;99.90
53876;DHT22;39789;53.216;5.624;2023-02-11T17:59:04;6.30;99.90
53876;DHT22;39789;53.216;5.624;2023-02-11T18:01:31;6.30;99.90
53876;DHT22;39789;53.216;5.624;2023-02-11T18:03:57;6.20;99.90
53876;DHT22;39789;53.216;5.624;2023-02-11T18:06:23;6.30;99.90
53876;DHT22;39789;53.216;5.624;2023-02-11T18:08:49;6.20;99.90
53876;DHT22;39789;53.216;5.624;2023-02-11T18:11:15;6.20;99.90
53876;DHT22;39789;53.216;5.624;2023-02-11T18:13:42;6.20;99.90
53876;DHT22;39789;53.216;5.624;2023-02-11T18:16:08;6.10;99.90
53876;DHT22;39789;53.216;5.624;2023-02-11T18:18:34;6.20;99.90
53876;DHT22;39789;53.216;5.624;2023-02-11T18:21:01;6.10;99.90
53876;DHT22;39789;53.216;5.624;2023-02-11T18:23:32;6.00;99.90
53876;DHT22;39789;53.216;5.624;2023-02-11T18:25:58;6.00;99.90